Time;durP1;ratioP1;P1;durP2;ratioP2;P2;SDS_P1;SDS_P2;PMS_P1;PMS_P2;Temp;Humidity;BMP_temperature;BMP_pressure;BME280_temperature;BME280_humidity;BME280_pressure;Samples;Min_cycle;Max_cycle;Signal;HPM_P1;HPM_P2
2023/08/06 00:00:24;;;;;;;0.00;0.00;;;;;;;;;;1733216;28;20265;-78
2023/08/06 00:01:21;;;;;;;0.00;0.00;;;;;;;;;;1731064;28;20235;-78
2023/08/06 00:02:12;;;;;;;0.00;0.00;;;;;;;;;;1735279;28;20210;-77
2023/08/06 00:03:03;;;;;;;0.00;0.00;;;;;;;;;;1734136;28;20200;-78
2023/08/06 00:03:55;;;;;;;0.00;0.00;;;;;;;;;;1734181;28;20207;-78
2023/08/06 00:04:46;;;;;;;0.00;0.00;;;;;;;;;;1734221;28;20239;-79
2023/08/06 00:05:38;;;;;;;0.00;0.00;;;;;;;;;;1734391;28;20227;-78
2023/08/06 00:06:29;;;;;;;0.00;0.00;;;;;;;;;;1735375;28;20242;-78
2023/08/06 00:07:20;;;;;;;0.00;0.00;;;;;;;;;;1737175;28;20223;-78
2023/08/06 00:08:12;;;;;;;0.00;0.00;;;;;;;;;;1735971;28;20267;-78
2023/08/06 00:09:03;;;;;;;0.00;0.00;;;;;;;;;;1734524;28;20254;-78
2023/08/06 00:09:54;;;;;;;0.00;0.00;;;;;;;;;;1736020;28;20203;-78
2023/08/06 00:10:48;;;;;;;0.00;0.00;;;;;;;;;;1734973;28;20382;-78
2023/08/06 00:11:41;;;;;;;0.00;0.00;;;;;;;;;;1736173;28;20566;-77
2023/08/06 00:12:33;;;;;;;0.00;0.00;;;;;;;;;;1735311;28;20242;-78
2023/08/06 00:13:24;;;;;;;0.00;0.00;;;;;;;;;;1735879;28;20218;-78
2023/08/06 00:14:17;;;;;;;0.00;0.00;;;;;;;;;;1733841;28;20208;-78
2023/08/06 00:15:09;;;;;;;0.00;0.00;;;;;;;;;;1731811;28;20254;-78
2023/08/06 00:16:08;;;;;;;0.00;0.00;;;;;;;;;;1732660;28;20239;-78
2023/08/06 00:17:02;;;;;;;0.00;0.00;;;;;;;;;;1733360;28;20203;-78
2023/08/06 00:17:53;;;;;;;0.00;0.00;;;;;;;;;;1733766;28;20266;-78
2023/08/06 00:18:44;;;;;;;0.00;0.00;;;;;;;;;;1737823;28;20207;-78
2023/08/06 00:19:36;;;;;;;0.00;0.00;;;;;;;;;;1735466;28;20227;-78
2023/08/06 00:20:27;;;;;;;0.00;0.00;;;;;;;;;;1732997;28;20266;-78
2023/08/06 00:21:18;;;;;;;0.00;0.00;;;;;;;;;;1733653;28;20314;-78
2023/08/06 00:22:10;;;;;;;0.00;0.00;;;;;;;;;;1734749;28;20206;-78
2023/08/06 00:23:02;;;;;;;0.00;0.00;;;;;;;;;;1733731;28;20250;-78
2023/08/06 00:23:53;;;;;;;0.00;0.00;;;;;;;;;;1734914;28;20203;-78
2023/08/06 00:24:45;;;;;;;0.00;0.00;;;;;;;;;;1734119;28;20495;-77
2023/08/06 00:25:37;;;;;;;0.00;0.00;;;;;;;;;;1737091;28;20276;-78
2023/08/06 00:26:29;;;;;;;0.00;0.00;;;;;;;;;;1731975;28;20204;-78
2023/08/06 00:27:20;;;;;;;0.00;0.00;;;;;;;;;;1735446;28;20210;-78
2023/08/06 00:28:12;;;;;;;0.00;0.00;;;;;;;;;;1735651;28;20208;-78
2023/08/06 00:29:03;;;;;;;0.00;0.00;;;;;;;;;;1734461;28;20239;-78
2023/08/06 00:29:55;;;;;;;0.00;0.00;;;;;;;;;;1735803;28;20689;-77
2023/08/06 00:30:46;;;;;;;0.00;0.00;;;;;;;;;;1740359;28;20695;-78
2023/08/06 00:31:38;;;;;;;0.00;0.00;;;;;;;;;;1736720;28;20195;-78
2023/08/06 00:32:30;;;;;;;0.00;0.00;;;;;;;;;;1735225;28;20204;-78
2023/08/06 00:33:21;;;;;;;0.00;0.00;;;;;;;;;;1736725;28;20645;-78
2023/08/06 00:34:13;;;;;;;0.00;0.00;;;;;;;;;;1735610;28;20629;-78
2023/08/06 00:35:05;;;;;;;0.00;0.00;;;;;;;;;;1735918;28;20208;-78
2023/08/06 00:35:57;;;;;;;0.00;0.00;;;;;;;;;;1734919;28;20235;-78
2023/08/06 00:36:48;;;;;;;0.00;0.00;;;;;;;;;;1731794;28;20250;-78
2023/08/06 00:37:39;;;;;;;0.00;0.00;;;;;;;;;;1736603;28;20200;-78
2023/08/06 00:38:31;;;;;;;0.00;0.00;;;;;;;;;;1736123;28;20203;-78
2023/08/06 00:39:22;;;;;;;0.00;0.00;;;;;;;;;;1738971;28;20785;-78
2023/08/06 00:40:13;;;;;;;0.00;0.00;;;;;;;;;;1728209;28;20200;-78
2023/08/06 00:41:06;;;;;;;0.00;0.00;;;;;;;;;;1732061;28;20798;-78
2023/08/06 00:41:58;;;;;;;0.00;0.00;;;;;;;;;;1735305;28;20293;-78
2023/08/06 00:42:50;;;;;;;0.00;0.00;;;;;;;;;;1738301;28;20210;-78
2023/08/06 00:43:41;;;;;;;0.00;0.00;;;;;;;;;;1735381;28;20214;-78
2023/08/06 00:44:32;;;;;;;0.00;0.00;;;;;;;;;;1733580;28;20210;-78
2023/08/06 00:45:24;;;;;;;0.00;0.00;;;;;;;;;;1732519;28;20210;-78
2023/08/06 00:46:15;;;;;;;0.00;0.00;;;;;;;;;;1733704;28;20235;-78
2023/08/06 00:47:07;;;;;;;0.00;0.00;;;;;;;;;;1734539;28;20223;-78
2023/08/06 00:48:00;;;;;;;0.00;0.00;;;;;;;;;;1733726;28;20199;-78
2023/08/06 00:48:51;;;;;;;0.00;0.00;;;;;;;;;;1734820;28;20239;-78
2023/08/06 00:49:44;;;;;;;0.00;0.00;;;;;;;;;;1734169;28;20215;-78
2023/08/06 00:50:35;;;;;;;0.00;0.00;;;;;;;;;;1733505;28;20322;-78
2023/08/06 00:51:27;;;;;;;0.00;0.00;;;;;;;;;;1737063;28;20231;-79
2023/08/06 00:52:18;;;;;;;0.00;0.00;;;;;;;;;;1738033;28;20242;-79
2023/08/06 00:53:09;;;;;;;0.00;0.00;;;;;;;;;;1743120;28;20195;-79
2023/08/06 00:54:01;;;;;;;0.00;0.00;;;;;;;;;;1742940;28;20206;-79
2023/08/06 00:54:52;;;;;;;0.00;0.00;;;;;;;;;;1738866;28;20242;-78
2023/08/06 00:55:45;;;;;;;0.00;0.00;;;;;;;;;;1737560;28;20235;-79
2023/08/06 00:56:38;;;;;;;0.00;0.00;;;;;;;;;;1735969;28;20195;-79
2023/08/06 00:57:29;;;;;;;0.00;0.00;;;;;;;;;;1731058;28;20259;-78
2023/08/06 00:58:21;;;;;;;0.00;0.00;;;;;;;;;;1738451;28;20592;-79
2023/08/06 00:59:12;;;;;;;0.00;0.00;;;;;;;;;;1733928;28;20231;-78
2023/08/06 01:00:05;;;;;;;0.00;0.00;;;;;;;;;;1736142;28;20211;-78
2023/08/06 01:00:56;;;;;;;0.00;0.00;;;;;;;;;;1733745;28;20304;-78
2023/08/06 01:01:47;;;;;;;0.00;0.00;;;;;;;;;;1737293;28;20681;-78
2023/08/06 01:02:39;;;;;;;0.00;0.00;;;;;;;;;;1738890;28;20290;-78
2023/08/06 01:03:31;;;;;;;0.00;0.00;;;;;;;;;;1738488;28;20276;-79
2023/08/06 01:04:24;;;;;;;0.00;0.00;;;;;;;;;;1737262;28;20208;-78
2023/08/06 01:05:15;;;;;;;0.00;0.00;;;;;;;;;;1737699;28;20234;-78
2023/08/06 01:06:07;;;;;;;0.00;0.00;;;;;;;;;;1736589;28;20243;-78
2023/08/06 01:07:03;;;;;;;0.00;0.00;;;;;;;;;;1738637;28;20250;-78
2023/08/06 01:08:05;;;;;;;0.00;0.00;;;;;;;;;;1737737;28;20204;-78
2023/08/06 01:08:59;;;;;;;0.00;0.00;;;;;;;;;;1741591;28;20656;-78
2023/08/06 01:09:55;;;;;;;0.00;0.00;;;;;;;;;;1731262;28;20202;-78
2023/08/06 01:10:52;;;;;;;0.00;0.00;;;;;;;;;;1736475;28;20262;-78
2023/08/06 01:11:48;;;;;;;0.00;0.00;;;;;;;;;;1737929;28;20518;-78
2023/08/06 01:12:43;;;;;;;0.00;0.00;;;;;;;;;;1737676;28;20223;-78
2023/08/06 01:13:38;;;;;;;0.00;0.00;;;;;;;;;;1736726;28;20223;-78
2023/08/06 01:14:33;;;;;;;0.00;0.00;;;;;;;;;;1737354;28;20207;-78
2023/08/06 01:15:28;;;;;;;0.00;0.00;;;;;;;;;;1734447;28;20298;-79
2023/08/06 01:16:21;;;;;;;0.00;0.00;;;;;;;;;;1730289;28;20204;-78
2023/08/06 01:17:14;;;;;;;0.00;0.00;;;;;;;;;;1733911;28;20199;-78
2023/08/06 01:18:05;;;;;;;0.00;0.00;;;;;;;;;;1734295;28;20675;-79
2023/08/06 01:18:58;;;;;;;0.00;0.00;;;;;;;;;;1737671;28;20241;-78
2023/08/06 01:19:50;;;;;;;0.00;0.00;;;;;;;;;;1733597;28;20595;-79
2023/08/06 01:20:43;;;;;;;0.00;0.00;;;;;;;;;;1728995;28;20247;-79
2023/08/06 01:21:35;;;;;;;0.00;0.00;;;;;;;;;;1733404;28;20289;-78
2023/08/06 01:22:26;;;;;;;0.00;0.00;;;;;;;;;;1730735;28;20200;-78
2023/08/06 01:23:17;;;;;;;0.00;0.00;;;;;;;;;;1733482;28;20214;-78
2023/08/06 01:24:10;;;;;;;0.00;0.00;;;;;;;;;;1733489;28;20203;-78
2023/08/06 01:25:02;;;;;;;0.00;0.00;;;;;;;;;;1732576;28;20326;-79
2023/08/06 01:25:56;;;;;;;0.00;0.00;;;;;;;;;;1731699;28;20318;-79
2023/08/06 01:26:51;;;;;;;0.00;0.00;;;;;;;;;;1733488;28;20199;-79
2023/08/06 01:27:45;;;;;;;0.00;0.00;;;;;;;;;;1733687;28;20212;-79
2023/08/06 01:28:41;;;;;;;0.00;0.00;;;;;;;;;;1732977;28;20649;-79
2023/08/06 01:29:35;;;;;;;0.00;0.00;;;;;;;;;;1733180;28;20210;-79
2023/08/06 01:30:29;;;;;;;0.00;0.00;;;;;;;;;;1731753;28;20242;-79
2023/08/06 01:31:23;;;;;;;0.00;0.00;;;;;;;;;;1729201;28;20193;-78
2023/08/06 01:32:14;;;;;;;0.00;0.00;;;;;;;;;;1733053;28;20208;-80
2023/08/06 01:33:06;;;;;;;0.00;0.00;;;;;;;;;;1733348;28;20204;-79
2023/08/06 01:33:59;;;;;;;0.00;0.00;;;;;;;;;;1732769;28;20719;-80
2023/08/06 01:34:51;;;;;;;0.00;0.00;;;;;;;;;;1733223;28;20623;-79
2023/08/06 01:35:43;;;;;;;0.00;0.00;;;;;;;;;;1733243;28;20229;-79
2023/08/06 01:36:35;;;;;;;0.00;0.00;;;;;;;;;;1733167;28;20245;-79
2023/08/06 01:37:27;;;;;;;0.00;0.00;;;;;;;;;;1735501;28;20210;-79
2023/08/06 01:38:18;;;;;;;0.00;0.00;;;;;;;;;;1738280;28;20202;-79
2023/08/06 01:39:10;;;;;;;0.00;0.00;;;;;;;;;;1733339;28;20269;-80
2023/08/06 01:40:02;;;;;;;0.00;0.00;;;;;;;;;;1733051;28;20666;-79
2023/08/06 01:40:53;;;;;;;0.00;0.00;;;;;;;;;;1732126;28;20293;-81
2023/08/06 01:41:45;;;;;;;0.00;0.00;;;;;;;;;;1733797;28;20669;-79
2023/08/06 01:42:36;;;;;;;0.00;0.00;;;;;;;;;;1732732;28;20290;-79
2023/08/06 01:43:27;;;;;;;0.00;0.00;;;;;;;;;;1733937;28;20610;-79
2023/08/06 01:44:19;;;;;;;0.00;0.00;;;;;;;;;;1737251;28;20203;-79
2023/08/06 01:45:11;;;;;;;0.00;0.00;;;;;;;;;;1733640;28;20253;-79
2023/08/06 01:46:02;;;;;;;0.00;0.00;;;;;;;;;;1736197;28;20231;-78
2023/08/06 01:46:54;;;;;;;0.00;0.00;;;;;;;;;;1737170;28;20207;-78
2023/08/06 01:47:45;;;;;;;0.00;0.00;;;;;;;;;;1738576;28;20211;-79
2023/08/06 01:48:36;;;;;;;0.00;0.00;;;;;;;;;;1737454;28;20203;-79
2023/08/06 01:49:28;;;;;;;0.00;0.00;;;;;;;;;;1738350;28;20203;-79
2023/08/06 01:50:20;;;;;;;0.00;0.00;;;;;;;;;;1737980;28;20654;-79
2023/08/06 01:51:13;;;;;;;0.00;0.00;;;;;;;;;;1737357;28;20474;-79
2023/08/06 01:52:04;;;;;;;0.00;0.00;;;;;;;;;;1738759;28;20215;-79
2023/08/06 01:52:55;;;;;;;0.00;0.00;;;;;;;;;;1740688;28;20595;-79
2023/08/06 01:53:47;;;;;;;0.00;0.00;;;;;;;;;;1737871;28;20200;-78
2023/08/06 01:54:38;;;;;;;0.00;0.00;;;;;;;;;;1735793;28;20246;-78
2023/08/06 01:55:30;;;;;;;0.00;0.00;;;;;;;;;;1733181;28;20290;-80
2023/08/06 01:56:22;;;;;;;0.00;0.00;;;;;;;;;;1732684;28;20188;-79
2023/08/06 01:57:13;;;;;;;0.00;0.00;;;;;;;;;;1732230;28;20200;-79
2023/08/06 01:58:04;;;;;;;0.00;0.00;;;;;;;;;;1733262;28;20242;-80
2023/08/06 01:58:56;;;;;;;0.00;0.00;;;;;;;;;;1733368;28;20653;-79
2023/08/06 01:59:47;;;;;;;0.00;0.00;;;;;;;;;;1732698;28;20554;-79
2023/08/06 02:00:38;;;;;;;0.00;0.00;;;;;;;;;;1731693;28;20239;-79
2023/08/06 02:01:30;;;;;;;0.00;0.00;;;;;;;;;;1731505;28;20204;-78
2023/08/06 02:02:21;;;;;;;0.00;0.00;;;;;;;;;;1732809;28;20265;-78
2023/08/06 02:03:13;;;;;;;0.00;0.00;;;;;;;;;;1732359;28;20227;-79
2023/08/06 02:04:04;;;;;;;0.00;0.00;;;;;;;;;;1731667;28;20254;-79
2023/08/06 02:04:58;;;;;;;0.00;0.00;;;;;;;;;;1732508;28;20692;-79
2023/08/06 02:05:49;;;;;;;0.00;0.00;;;;;;;;;;1731553;28;20269;-79
2023/08/06 02:06:42;;;;;;;0.00;0.00;;;;;;;;;;1733009;28;20207;-79
2023/08/06 02:07:33;;;;;;;0.00;0.00;;;;;;;;;;1732927;28;20242;-80
2023/08/06 02:08:24;;;;;;;0.00;0.00;;;;;;;;;;1732948;28;20330;-79
2023/08/06 02:09:16;;;;;;;0.00;0.00;;;;;;;;;;1732618;28;20290;-79
2023/08/06 02:10:08;;;;;;;0.00;0.00;;;;;;;;;;1733291;28;20246;-79
2023/08/06 02:10:59;;;;;;;0.00;0.00;;;;;;;;;;1735417;28;20239;-78
2023/08/06 02:11:51;;;;;;;0.00;0.00;;;;;;;;;;1736533;28;20226;-78
2023/08/06 02:12:42;;;;;;;0.00;0.00;;;;;;;;;;1736977;28;20212;-78
2023/08/06 02:13:33;;;;;;;0.00;0.00;;;;;;;;;;1737383;28;20204;-79
2023/08/06 02:14:25;;;;;;;0.00;0.00;;;;;;;;;;1736688;28;20362;-79
2023/08/06 02:15:16;;;;;;;0.00;0.00;;;;;;;;;;1735624;28;20212;-79
2023/08/06 02:16:09;;;;;;;0.03;0.03;;;;;;;;;;1737641;28;20287;-79
2023/08/06 02:17:00;;;;;;;0.00;0.00;;;;;;;;;;1737379;28;20208;-79
2023/08/06 02:17:51;;;;;;;0.00;0.00;;;;;;;;;;1743385;28;20318;-79
2023/08/06 02:18:43;;;;;;;0.00;0.00;;;;;;;;;;1739322;28;20734;-78
2023/08/06 02:19:34;;;;;;;0.00;0.00;;;;;;;;;;1737433;28;20234;-79
2023/08/06 02:20:26;;;;;;;0.00;0.00;;;;;;;;;;1733847;28;20235;-80
2023/08/06 02:21:17;;;;;;;0.00;0.00;;;;;;;;;;1732989;28;20724;-79
2023/08/06 02:22:10;;;;;;;0.00;0.00;;;;;;;;;;1732438;28;20314;-79
2023/08/06 02:23:01;;;;;;;0.00;0.00;;;;;;;;;;1732122;28;20231;-79
2023/08/06 02:23:52;;;;;;;0.00;0.00;;;;;;;;;;1732355;28;20262;-79
2023/08/06 02:24:45;;;;;;;0.00;0.00;;;;;;;;;;1732991;28;20432;-79
2023/08/06 02:25:36;;;;;;;0.00;0.00;;;;;;;;;;1731758;28;20254;-79
2023/08/06 02:26:27;;;;;;;0.00;0.00;;;;;;;;;;1736555;28;20211;-79
2023/08/06 02:27:19;;;;;;;0.00;0.00;;;;;;;;;;1732120;28;20614;-79
2023/08/06 02:28:10;;;;;;;0.00;0.00;;;;;;;;;;1732287;28;20242;-79
2023/08/06 02:29:01;;;;;;;0.00;0.00;;;;;;;;;;1733902;28;20231;-78
2023/08/06 02:29:53;;;;;;;0.00;0.00;;;;;;;;;;1732319;28;20207;-78
2023/08/06 02:30:50;;;;;;;0.00;0.00;;;;;;;;;;1732626;28;20307;-78
2023/08/06 02:31:42;;;;;;;0.00;0.00;;;;;;;;;;1731213;28;20568;-79
2023/08/06 02:32:35;;;;;;;0.00;0.00;;;;;;;;;;1729513;28;20223;-79
2023/08/06 02:33:27;;;;;;;0.00;0.00;;;;;;;;;;1732147;28;20265;-79
2023/08/06 02:34:18;;;;;;;0.00;0.00;;;;;;;;;;1732331;28;20235;-79
2023/08/06 02:35:10;;;;;;;0.00;0.00;;;;;;;;;;1733025;28;20712;-80
2023/08/06 02:36:03;;;;;;;0.00;0.00;;;;;;;;;;1731818;28;20682;-79
2023/08/06 02:36:54;;;;;;;0.00;0.00;;;;;;;;;;1734596;28;20260;-79
2023/08/06 02:37:47;;;;;;;0.00;0.00;;;;;;;;;;1734211;28;20596;-80
2023/08/06 02:38:38;;;;;;;0.00;0.00;;;;;;;;;;1732349;28;20302;-79
2023/08/06 02:39:30;;;;;;;0.00;0.00;;;;;;;;;;1732949;28;20211;-79
2023/08/06 02:40:21;;;;;;;0.00;0.00;;;;;;;;;;1733507;28;20239;-78
2023/08/06 02:41:13;;;;;;;0.00;0.00;;;;;;;;;;1739158;28;20573;-78
2023/08/06 02:42:05;;;;;;;0.00;0.00;;;;;;;;;;1739985;28;20331;-78
2023/08/06 02:42:56;;;;;;;0.00;0.00;;;;;;;;;;1745010;28;20577;-78
2023/08/06 02:43:48;;;;;;;0.00;0.00;;;;;;;;;;1741016;28;20362;-78
2023/08/06 02:44:39;;;;;;;0.00;0.00;;;;;;;;;;1739061;28;20227;-78
2023/08/06 02:45:30;;;;;;;0.00;0.00;;;;;;;;;;1737509;28;20207;-78
2023/08/06 02:46:22;;;;;;;0.00;0.00;;;;;;;;;;1739393;28;20211;-78
2023/08/06 02:47:13;;;;;;;0.00;0.00;;;;;;;;;;1742904;28;20253;-78
2023/08/06 02:48:06;;;;;;;0.00;0.00;;;;;;;;;;1739165;28;20212;-78
2023/08/06 02:48:57;;;;;;;0.00;0.00;;;;;;;;;;1737896;28;20204;-79
2023/08/06 02:49:49;;;;;;;0.00;0.00;;;;;;;;;;1739117;28;20195;-79
2023/08/06 02:50:40;;;;;;;0.00;0.00;;;;;;;;;;1739148;28;20740;-78
2023/08/06 02:51:31;;;;;;;0.00;0.00;;;;;;;;;;1738405;28;20250;-78
2023/08/06 02:52:23;;;;;;;0.00;0.00;;;;;;;;;;1743344;28;20460;-79
2023/08/06 02:53:16;;;;;;;0.00;0.00;;;;;;;;;;1744444;28;20583;-79
2023/08/06 02:54:07;;;;;;;0.00;0.00;;;;;;;;;;1746015;28;20203;-79
2023/08/06 02:55:00;;;;;;;0.00;0.00;;;;;;;;;;1733859;28;20204;-79
2023/08/06 02:55:51;;;;;;;0.00;0.00;;;;;;;;;;1737645;28;20298;-79
2023/08/06 02:56:44;;;;;;;0.00;0.00;;;;;;;;;;1737538;28;20265;-79
2023/08/06 02:57:36;;;;;;;0.00;0.00;;;;;;;;;;1742085;28;20204;-79
2023/08/06 02:58:27;;;;;;;0.00;0.00;;;;;;;;;;1739137;28;20250;-79
2023/08/06 02:59:18;;;;;;;0.00;0.00;;;;;;;;;;1738768;28;20223;-79
2023/08/06 03:00:11;;;;;;;0.00;0.00;;;;;;;;;;1740035;28;20243;-78
2023/08/06 03:01:03;;;;;;;0.00;0.00;;;;;;;;;;1733464;28;20235;-78
2023/08/06 03:01:54;;;;;;;0.00;0.00;;;;;;;;;;1735760;28;20265;-79
2023/08/06 03:02:46;;;;;;;0.00;0.00;;;;;;;;;;1735710;28;20553;-79
2023/08/06 03:03:37;;;;;;;0.00;0.00;;;;;;;;;;1734687;28;20245;-79
2023/08/06 03:04:29;;;;;;;0.00;0.00;;;;;;;;;;1734240;28;20204;-79
2023/08/06 03:05:20;;;;;;;0.00;0.00;;;;;;;;;;1733777;28;20307;-79
2023/08/06 03:06:11;;;;;;;0.00;0.00;;;;;;;;;;1739062;28;20540;-79
2023/08/06 03:07:03;;;;;;;0.00;0.00;;;;;;;;;;1738439;28;20222;-79
2023/08/06 03:07:54;;;;;;;0.00;0.00;;;;;;;;;;1744895;28;20245;-79
2023/08/06 03:08:46;;;;;;;0.00;0.00;;;;;;;;;;1739806;28;20227;-79
2023/08/06 03:09:38;;;;;;;0.00;0.00;;;;;;;;;;1738880;28;20262;-78
2023/08/06 03:10:30;;;;;;;0.00;0.00;;;;;;;;;;1734722;28;20649;-80
2023/08/06 03:11:21;;;;;;;0.00;0.00;;;;;;;;;;1733643;28;20227;-79
2023/08/06 03:12:13;;;;;;;0.00;0.00;;;;;;;;;;1732852;28;20203;-79
2023/08/06 03:13:04;;;;;;;0.00;0.00;;;;;;;;;;1734359;28;20203;-79
2023/08/06 03:13:56;;;;;;;0.00;0.00;;;;;;;;;;1732978;28;20210;-79
2023/08/06 03:14:47;;;;;;;0.00;0.00;;;;;;;;;;1733946;28;20655;-80
2023/08/06 03:15:38;;;;;;;0.00;0.00;;;;;;;;;;1724930;28;20203;-79
2023/08/06 03:16:30;;;;;;;0.00;0.00;;;;;;;;;;1740226;28;20217;-80
2023/08/06 03:17:21;;;;;;;0.00;0.00;;;;;;;;;;1739637;28;20245;-79
2023/08/06 03:18:12;;;;;;;0.00;0.00;;;;;;;;;;1734092;28;20294;-79
2023/08/06 03:19:04;;;;;;;0.00;0.00;;;;;;;;;;1734288;28;20200;-79
2023/08/06 03:19:55;;;;;;;0.00;0.00;;;;;;;;;;1733232;28;20235;-79
2023/08/06 03:20:46;;;;;;;0.00;0.00;;;;;;;;;;1739035;28;20246;-79
2023/08/06 03:21:38;;;;;;;0.00;0.00;;;;;;;;;;1738247;28;20643;-79
2023/08/06 03:22:29;;;;;;;0.00;0.00;;;;;;;;;;1738518;28;20692;-80
2023/08/06 03:23:22;;;;;;;0.00;0.00;;;;;;;;;;1738659;28;20246;-79
2023/08/06 03:24:15;;;;;;;0.00;0.00;;;;;;;;;;1728807;28;20215;-79
2023/08/06 03:25:06;;;;;;;0.00;0.00;;;;;;;;;;1739475;28;20200;-79
2023/08/06 03:26:02;;;;;;;0.00;0.00;;;;;;;;;;1733293;28;20297;-79
2023/08/06 03:26:53;;;;;;;0.00;0.00;;;;;;;;;;1734033;28;20214;-80
2023/08/06 03:27:45;;;;;;;0.00;0.00;;;;;;;;;;1734222;28;20613;-80
2023/08/06 03:28:36;;;;;;;0.00;0.00;;;;;;;;;;1734109;28;20238;-80
2023/08/06 03:29:27;;;;;;;0.00;0.00;;;;;;;;;;1734304;28;20203;-80
2023/08/06 03:30:19;;;;;;;0.00;0.00;;;;;;;;;;1737491;28;20516;-79
2023/08/06 03:31:10;;;;;;;0.00;0.00;;;;;;;;;;1743585;28;20265;-79
2023/08/06 03:32:01;;;;;;;0.00;0.00;;;;;;;;;;1740467;28;20203;-79
2023/08/06 03:32:53;;;;;;;0.00;0.00;;;;;;;;;;1738860;28;20612;-79
2023/08/06 03:33:44;;;;;;;0.00;0.00;;;;;;;;;;1737722;28;20227;-79
2023/08/06 03:34:36;;;;;;;0.00;0.00;;;;;;;;;;1738755;28;20223;-79
2023/08/06 03:35:28;;;;;;;0.00;0.00;;;;;;;;;;1737620;28;20241;-80
2023/08/06 03:36:20;;;;;;;0.00;0.00;;;;;;;;;;1734872;28;20227;-80
2023/08/06 03:37:11;;;;;;;0.00;0.00;;;;;;;;;;1733622;28;20207;-80
2023/08/06 03:38:03;;;;;;;0.00;0.00;;;;;;;;;;1734399;28;20199;-80
2023/08/06 03:38:54;;;;;;;0.00;0.00;;;;;;;;;;1733814;28;20256;-80
2023/08/06 03:39:46;;;;;;;0.00;0.00;;;;;;;;;;1734052;28;20211;-80
2023/08/06 03:40:38;;;;;;;0.00;0.00;;;;;;;;;;1735608;28;20239;-81
2023/08/06 03:41:30;;;;;;;0.00;0.00;;;;;;;;;;1738782;28;20312;-80
2023/08/06 03:42:21;;;;;;;0.00;0.00;;;;;;;;;;1743382;28;20250;-80
2023/08/06 03:43:13;;;;;;;0.00;0.00;;;;;;;;;;1738274;28;20287;-80
2023/08/06 03:44:04;;;;;;;0.00;0.00;;;;;;;;;;1738825;28;20231;-80
2023/08/06 03:44:55;;;;;;;0.00;0.00;;;;;;;;;;1738678;28;20231;-80
2023/08/06 03:45:47;;;;;;;0.00;0.00;;;;;;;;;;1733477;28;20239;-81
2023/08/06 03:46:38;;;;;;;0.00;0.00;;;;;;;;;;1734247;28;20249;-80
2023/08/06 03:47:30;;;;;;;0.00;0.00;;;;;;;;;;1733702;28;20572;-81
2023/08/06 03:48:21;;;;;;;0.00;0.00;;;;;;;;;;1733968;28;20211;-80
2023/08/06 03:49:13;;;;;;;0.00;0.00;;;;;;;;;;1733925;28;20598;-80
2023/08/06 03:50:05;;;;;;;0.00;0.00;;;;;;;;;;1734345;28;20631;-80
2023/08/06 03:50:57;;;;;;;0.00;0.00;;;;;;;;;;1726093;28;20549;-80
2023/08/06 03:51:48;;;;;;;0.00;0.00;;;;;;;;;;1723517;28;20623;-80
2023/08/06 03:52:40;;;;;;;0.00;0.00;;;;;;;;;;1726529;28;20204;-80
2023/08/06 03:53:32;;;;;;;0.00;0.00;;;;;;;;;;1726613;28;20255;-80
2023/08/06 03:54:24;;;;;;;0.00;0.00;;;;;;;;;;1727080;28;20225;-80
2023/08/06 03:55:16;;;;;;;0.00;0.00;;;;;;;;;;1722661;28;20205;-80
2023/08/06 03:56:07;;;;;;;0.00;0.00;;;;;;;;;;1728970;28;20232;-80
2023/08/06 03:56:59;;;;;;;0.00;0.00;;;;;;;;;;1725931;28;20208;-80
2023/08/06 03:57:50;;;;;;;0.00;0.00;;;;;;;;;;1727495;28;20238;-80
2023/08/06 03:58:42;;;;;;;0.00;0.00;;;;;;;;;;1729808;28;20207;-80
2023/08/06 03:59:33;;;;;;;0.00;0.00;;;;;;;;;;1728890;28;20296;-80
2023/08/06 04:00:25;;;;;;;0.00;0.00;;;;;;;;;;1728259;28;20203;-80
2023/08/06 04:01:16;;;;;;;0.00;0.00;;;;;;;;;;1718914;28;20733;-81
2023/08/06 04:02:07;;;;;;;0.00;0.00;;;;;;;;;;1722358;28;20303;-80
2023/08/06 04:02:59;;;;;;;0.00;0.00;;;;;;;;;;1726850;28;20660;-80
2023/08/06 04:03:50;;;;;;;0.00;0.00;;;;;;;;;;1725517;28;20235;-80
2023/08/06 04:04:43;;;;;;;0.00;0.00;;;;;;;;;;1727622;28;20590;-80
2023/08/06 04:05:34;;;;;;;0.00;0.00;;;;;;;;;;1730665;28;20231;-80
2023/08/06 04:06:26;;;;;;;0.00;0.00;;;;;;;;;;1730777;28;20219;-80
2023/08/06 04:07:17;;;;;;;0.00;0.00;;;;;;;;;;1730279;28;20205;-79
2023/08/06 04:08:08;;;;;;;0.00;0.00;;;;;;;;;;1731074;28;20192;-79
2023/08/06 04:09:00;;;;;;;0.00;0.00;;;;;;;;;;1730505;28;20235;-79
2023/08/06 04:09:52;;;;;;;0.00;0.00;;;;;;;;;;1730817;28;20239;-79
2023/08/06 04:10:44;;;;;;;0.00;0.00;;;;;;;;;;1730199;28;20235;-80
2023/08/06 04:11:36;;;;;;;0.00;0.00;;;;;;;;;;1730763;28;20224;-80
2023/08/06 04:12:28;;;;;;;0.00;0.00;;;;;;;;;;1732375;28;20243;-79
2023/08/06 04:13:19;;;;;;;0.00;0.00;;;;;;;;;;1734578;28;20232;-80
2023/08/06 04:14:11;;;;;;;0.00;0.00;;;;;;;;;;1734714;28;20755;-80
2023/08/06 04:15:06;;;;;;;0.00;0.00;;;;;;;;;;1734802;28;20235;-80
2023/08/06 04:16:02;;;;;;;0.00;0.00;;;;;;;;;;1732351;28;20236;-80
2023/08/06 04:16:53;;;;;;;0.00;0.00;;;;;;;;;;1733870;28;20211;-79
2023/08/06 04:17:45;;;;;;;0.00;0.00;;;;;;;;;;1733115;28;20299;-79
2023/08/06 04:18:36;;;;;;;0.00;0.00;;;;;;;;;;1730773;28;20492;-79
2023/08/06 04:19:27;;;;;;;0.00;0.00;;;;;;;;;;1733468;28;20227;-79
2023/08/06 04:20:19;;;;;;;0.00;0.00;;;;;;;;;;1731650;28;20455;-79
2023/08/06 04:21:10;;;;;;;0.00;0.00;;;;;;;;;;1732823;28;20200;-79
2023/08/06 04:22:02;;;;;;;0.00;0.00;;;;;;;;;;1732400;28;20661;-80
2023/08/06 04:22:55;;;;;;;0.00;0.00;;;;;;;;;;1732310;28;20235;-79
2023/08/06 04:23:46;;;;;;;0.00;0.00;;;;;;;;;;1732277;28;20259;-79
2023/08/06 04:24:38;;;;;;;0.00;0.00;;;;;;;;;;1732314;28;20219;-79
2023/08/06 04:25:29;;;;;;;0.00;0.00;;;;;;;;;;1730979;28;20649;-79
2023/08/06 04:26:21;;;;;;;0.00;0.00;;;;;;;;;;1732782;28;20204;-79
2023/08/06 04:27:14;;;;;;;0.00;0.00;;;;;;;;;;1732324;28;20298;-79
2023/08/06 04:28:05;;;;;;;0.00;0.00;;;;;;;;;;1725564;28;20208;-79
2023/08/06 04:28:56;;;;;;;0.00;0.00;;;;;;;;;;1731285;28;20200;-79
2023/08/06 04:29:48;;;;;;;0.00;0.00;;;;;;;;;;1732522;28;20212;-79
2023/08/06 04:30:39;;;;;;;0.00;0.00;;;;;;;;;;1727061;28;20275;-79
2023/08/06 04:31:31;;;;;;;0.00;0.00;;;;;;;;;;1726999;28;20220;-80
2023/08/06 04:32:22;;;;;;;0.00;0.00;;;;;;;;;;1725946;28;20545;-79
2023/08/06 04:33:13;;;;;;;0.00;0.00;;;;;;;;;;1727243;28;20228;-80
2023/08/06 04:34:05;;;;;;;0.00;0.00;;;;;;;;;;1727136;28;20306;-80
2023/08/06 04:34:56;;;;;;;0.00;0.00;;;;;;;;;;1726379;28;20349;-80
2023/08/06 04:35:48;;;;;;;0.00;0.00;;;;;;;;;;1725818;28;20244;-79
2023/08/06 04:36:39;;;;;;;0.00;0.00;;;;;;;;;;1726711;28;20239;-79
2023/08/06 04:37:30;;;;;;;0.00;0.00;;;;;;;;;;1727150;28;20192;-79
2023/08/06 04:38:22;;;;;;;0.00;0.00;;;;;;;;;;1726776;28;20204;-79
2023/08/06 04:39:13;;;;;;;0.00;0.00;;;;;;;;;;1727217;28;20267;-80
2023/08/06 04:40:05;;;;;;;0.00;0.00;;;;;;;;;;1726926;28;20648;-79
2023/08/06 04:40:57;;;;;;;0.00;0.00;;;;;;;;;;1729458;28;20249;-79
2023/08/06 04:41:49;;;;;;;0.00;0.00;;;;;;;;;;1731245;28;20236;-80
2023/08/06 04:42:41;;;;;;;0.00;0.00;;;;;;;;;;1731144;28;20231;-79
2023/08/06 04:43:32;;;;;;;0.00;0.00;;;;;;;;;;1730589;28;20240;-79
2023/08/06 04:44:24;;;;;;;0.00;0.00;;;;;;;;;;1730675;28;20232;-79
2023/08/06 04:45:16;;;;;;;0.00;0.00;;;;;;;;;;1728668;28;20697;-80
2023/08/06 04:46:07;;;;;;;0.00;0.00;;;;;;;;;;1726653;28;20205;-80
2023/08/06 04:46:59;;;;;;;0.00;0.00;;;;;;;;;;1726351;28;20214;-80
2023/08/06 04:47:50;;;;;;;0.00;0.00;;;;;;;;;;1725982;28;20741;-80
2023/08/06 04:48:41;;;;;;;0.00;0.00;;;;;;;;;;1726109;28;20251;-80
2023/08/06 04:49:33;;;;;;;0.00;0.00;;;;;;;;;;1726207;28;20538;-79
2023/08/06 04:50:24;;;;;;;0.00;0.00;;;;;;;;;;1724683;28;20211;-80
2023/08/06 04:51:16;;;;;;;0.00;0.00;;;;;;;;;;1731373;28;20203;-79
2023/08/06 04:52:07;;;;;;;0.00;0.00;;;;;;;;;;1739987;28;20608;-80
2023/08/06 04:52:58;;;;;;;0.00;0.00;;;;;;;;;;1739460;28;20222;-79
2023/08/06 04:53:50;;;;;;;0.00;0.00;;;;;;;;;;1740157;28;20276;-79
2023/08/06 04:54:41;;;;;;;0.00;0.00;;;;;;;;;;1740111;28;20290;-79
2023/08/06 04:55:32;;;;;;;0.00;0.00;;;;;;;;;;1743570;28;20244;-79
2023/08/06 04:56:24;;;;;;;0.00;0.00;;;;;;;;;;1751093;28;20224;-79
2023/08/06 04:57:16;;;;;;;0.00;0.00;;;;;;;;;;1745333;28;20242;-80
2023/08/06 04:58:08;;;;;;;0.00;0.00;;;;;;;;;;1738265;28;20246;-80
2023/08/06 04:59:00;;;;;;;0.00;0.00;;;;;;;;;;1744046;28;20230;-79
2023/08/06 04:59:51;;;;;;;0.00;0.00;;;;;;;;;;1744644;28;20666;-79
2023/08/06 05:00:43;;;;;;;0.00;0.00;;;;;;;;;;1743435;28;20237;-79
2023/08/06 05:01:34;;;;;;;0.00;0.00;;;;;;;;;;1744466;28;20237;-79
2023/08/06 05:02:26;;;;;;;0.00;0.00;;;;;;;;;;1744119;28;20528;-78
2023/08/06 05:03:17;;;;;;;0.00;0.00;;;;;;;;;;1743467;28;20660;-79
2023/08/06 05:04:09;;;;;;;0.00;0.00;;;;;;;;;;1744210;28;20244;-79
2023/08/06 05:05:03;;;;;;;0.00;0.00;;;;;;;;;;1743505;28;20231;-80
2023/08/06 05:05:55;;;;;;;0.00;0.00;;;;;;;;;;1739745;28;20234;-81
2023/08/06 05:06:47;;;;;;;0.00;0.00;;;;;;;;;;1739873;28;20214;-80
2023/08/06 05:07:38;;;;;;;0.10;0.10;;;;;;;;;;1740593;28;20207;-79
2023/08/06 05:08:29;;;;;;;0.00;0.00;;;;;;;;;;1740005;28;20205;-80
2023/08/06 05:09:21;;;;;;;0.00;0.00;;;;;;;;;;1740247;28;20213;-80
2023/08/06 05:10:12;;;;;;;0.00;0.00;;;;;;;;;;1740099;28;20249;-80
2023/08/06 05:11:04;;;;;;;0.00;0.00;;;;;;;;;;1739629;28;20251;-80